<?xml version="1.0" encoding="UTF-8"?>
<gpx xmlns:xsi="http://www.w3.org/2001/XMLSchema-instance" xsi:schemaLocation="http://www.topografix.com/GPX/1/1 http://www.topografix.com/GPX/1/1/gpx.xsd" creator="StravaGPX" version="1.1" xmlns="http://www.topografix.com/GPX/1/1">
 <metadata>
  <time>2025-07-05T12:06:15Z</time>
 </metadata>
 <trk>
  <name>Clonmacnoise</name>
  <type>walking</type>
  <trkseg>
   <trkpt lat="53.3251890" lon="-7.9872720">
    <ele>42.3</ele>
    <time>2025-07-05T12:06:15Z</time>
   </trkpt>
   <trkpt lat="53.3252350" lon="-7.9872620">
    <ele>42.3</ele>
    <time>2025-07-05T12:06:27Z</time>
   </trkpt>
   <trkpt lat="53.3252800" lon="-7.9872290">
    <ele>42.4</ele>
    <time>2025-07-05T12:06:36Z</time>
   </trkpt>
   <trkpt lat="53.3253510" lon="-7.9872190">
    <ele>42.4</ele>
    <time>2025-07-05T12:06:41Z</time>
   </trkpt>
   <trkpt lat="53.3254290" lon="-7.9871410">
    <ele>42.5</ele>
    <time>2025-07-05T12:06:47Z</time>
   </trkpt>
   <trkpt lat="53.3254920" lon="-7.9870560">
    <ele>42.7</ele>
    <time>2025-07-05T12:06:52Z</time>
   </trkpt>
   <trkpt lat="53.3255550" lon="-7.9869810">
    <ele>42.9</ele>
    <time>2025-07-05T12:06:57Z</time>
   </trkpt>
   <trkpt lat="53.3256030" lon="-7.9869020">
    <ele>43.0</ele>
    <time>2025-07-05T12:07:02Z</time>
   </trkpt>
   <trkpt lat="53.3256370" lon="-7.9869590">
    <ele>43.1</ele>
    <time>2025-07-05T12:07:18Z</time>
   </trkpt>
   <trkpt lat="53.3256440" lon="-7.9870600">
    <ele>43.0</ele>
    <time>2025-07-05T12:07:24Z</time>
   </trkpt>
   <trkpt lat="53.3256960" lon="-7.9870780">
    <ele>42.9</ele>
    <time>2025-07-05T12:08:23Z</time>
   </trkpt>
   <trkpt lat="53.3257690" lon="-7.9870750">
    <ele>42.8</ele>
    <time>2025-07-05T12:08:28Z</time>
   </trkpt>
   <trkpt lat="53.3258570" lon="-7.9871250">
    <ele>42.7</ele>
    <time>2025-07-05T12:08:33Z</time>
   </trkpt>
   <trkpt lat="53.3258940" lon="-7.9870810">
    <ele>42.4</ele>
    <time>2025-07-05T12:08:41Z</time>
   </trkpt>
   <trkpt lat="53.3259330" lon="-7.9870430">
    <ele>42.2</ele>
    <time>2025-07-05T12:09:01Z</time>
   </trkpt>
   <trkpt lat="53.3259600" lon="-7.9869730">
    <ele>42.2</ele>
    <time>2025-07-05T12:09:08Z</time>
   </trkpt>
   <trkpt lat="53.3259390" lon="-7.9870430">
    <ele>42.1</ele>
    <time>2025-07-05T12:11:33Z</time>
   </trkpt>
   <trkpt lat="53.3259710" lon="-7.9869880">
    <ele>42.1</ele>
    <time>2025-07-05T12:11:52Z</time>
   </trkpt>
   <trkpt lat="53.3259360" lon="-7.9870360">
    <ele>42.1</ele>
    <time>2025-07-05T12:14:21Z</time>
   </trkpt>
   <trkpt lat="53.3259830" lon="-7.9870230">
    <ele>42.0</ele>
    <time>2025-07-05T12:17:47Z</time>
   </trkpt>
   <trkpt lat="53.3259940" lon="-7.9869430">
    <ele>42.0</ele>
    <time>2025-07-05T12:18:02Z</time>
   </trkpt>
   <trkpt lat="53.3259850" lon="-7.9868300">
    <ele>42.0</ele>
    <time>2025-07-05T12:18:08Z</time>
   </trkpt>
   <trkpt lat="53.3259370" lon="-7.9867970">
    <ele>42.2</ele>
    <time>2025-07-05T12:18:20Z</time>
   </trkpt>
   <trkpt lat="53.3259360" lon="-7.9867190">
    <ele>42.4</ele>
    <time>2025-07-05T12:18:35Z</time>
   </trkpt>
   <trkpt lat="53.3259030" lon="-7.9867870">
    <ele>42.5</ele>
    <time>2025-07-05T12:18:57Z</time>
   </trkpt>
   <trkpt lat="53.3259300" lon="-7.9867130">
    <ele>42.6</ele>
    <time>2025-07-05T12:19:43Z</time>
   </trkpt>
   <trkpt lat="53.3259700" lon="-7.9867540">
    <ele>42.4</ele>
    <time>2025-07-05T12:20:07Z</time>
   </trkpt>
   <trkpt lat="53.3260190" lon="-7.9867400">
    <ele>42.2</ele>
    <time>2025-07-05T12:20:23Z</time>
   </trkpt>
   <trkpt lat="53.3259710" lon="-7.9867930">
    <ele>42.1</ele>
    <time>2025-07-05T12:20:56Z</time>
   </trkpt>
   <trkpt lat="53.3259250" lon="-7.9867830">
    <ele>42.2</ele>
    <time>2025-07-05T12:21:01Z</time>
   </trkpt>
   <trkpt lat="53.3259730" lon="-7.9867870">
    <ele>42.4</ele>
    <time>2025-07-05T12:21:24Z</time>
   </trkpt>
   <trkpt lat="53.3260150" lon="-7.9867150">
    <ele>42.2</ele>
    <time>2025-07-05T12:21:29Z</time>
   </trkpt>
   <trkpt lat="53.3259800" lon="-7.9867750">
    <ele>42.1</ele>
    <time>2025-07-05T12:21:38Z</time>
   </trkpt>
   <trkpt lat="53.3259530" lon="-7.9869000">
    <ele>42.2</ele>
    <time>2025-07-05T12:21:44Z</time>
   </trkpt>
   <trkpt lat="53.3259550" lon="-7.9869770">
    <ele>42.2</ele>
    <time>2025-07-05T12:21:50Z</time>
   </trkpt>
   <trkpt lat="53.3260010" lon="-7.9869870">
    <ele>41.9</ele>
    <time>2025-07-05T12:22:58Z</time>
   </trkpt>
   <trkpt lat="53.3260470" lon="-7.9869850">
    <ele>41.6</ele>
    <time>2025-07-05T12:23:32Z</time>
   </trkpt>
   <trkpt lat="53.3260000" lon="-7.9869770">
    <ele>41.7</ele>
    <time>2025-07-05T12:24:28Z</time>
   </trkpt>
   <trkpt lat="53.3260200" lon="-7.9870500">
    <ele>41.8</ele>
    <time>2025-07-05T12:24:52Z</time>
   </trkpt>
   <trkpt lat="53.3260620" lon="-7.9870770">
    <ele>41.6</ele>
    <time>2025-07-05T12:24:58Z</time>
   </trkpt>
   <trkpt lat="53.3260880" lon="-7.9870120">
    <ele>41.2</ele>
    <time>2025-07-05T12:25:45Z</time>
   </trkpt>
   <trkpt lat="53.3261080" lon="-7.9870890">
    <ele>41.1</ele>
    <time>2025-07-05T12:26:35Z</time>
   </trkpt>
   <trkpt lat="53.3261510" lon="-7.9871150">
    <ele>40.9</ele>
    <time>2025-07-05T12:27:02Z</time>
   </trkpt>
   <trkpt lat="53.3261070" lon="-7.9871450">
    <ele>40.8</ele>
    <time>2025-07-05T12:27:54Z</time>
   </trkpt>
   <trkpt lat="53.3261590" lon="-7.9871560">
    <ele>40.8</ele>
    <time>2025-07-05T12:29:07Z</time>
   </trkpt>
   <trkpt lat="53.3262020" lon="-7.9871310">
    <ele>40.3</ele>
    <time>2025-07-05T12:31:07Z</time>
   </trkpt>
   <trkpt lat="53.3262160" lon="-7.9870600">
    <ele>40.3</ele>
    <time>2025-07-05T12:33:57Z</time>
   </trkpt>
   <trkpt lat="53.3262510" lon="-7.9870050">
    <ele>40.0</ele>
    <time>2025-07-05T12:34:28Z</time>
   </trkpt>
   <trkpt lat="53.3262920" lon="-7.9869700">
    <ele>39.7</ele>
    <time>2025-07-05T12:35:24Z</time>
   </trkpt>
   <trkpt lat="53.3263290" lon="-7.9869200">
    <ele>39.6</ele>
    <time>2025-07-05T12:36:48Z</time>
   </trkpt>
   <trkpt lat="53.3262860" lon="-7.9868850">
    <ele>39.7</ele>
    <time>2025-07-05T12:42:16Z</time>
   </trkpt>
   <trkpt lat="53.3263240" lon="-7.9869290">
    <ele>39.5</ele>
    <time>2025-07-05T12:43:45Z</time>
   </trkpt>
   <trkpt lat="53.3262860" lon="-7.9869760">
    <ele>39.6</ele>
    <time>2025-07-05T12:44:06Z</time>
   </trkpt>
   <trkpt lat="53.3262900" lon="-7.9870700">
    <ele>39.6</ele>
    <time>2025-07-05T12:44:11Z</time>
   </trkpt>
   <trkpt lat="53.3262460" lon="-7.9870930">
    <ele>39.7</ele>
    <time>2025-07-05T12:44:24Z</time>
   </trkpt>
   <trkpt lat="53.3262030" lon="-7.9871180">
    <ele>40.2</ele>
    <time>2025-07-05T12:44:52Z</time>
   </trkpt>
   <trkpt lat="53.3261540" lon="-7.9871160">
    <ele>40.4</ele>
    <time>2025-07-05T12:45:09Z</time>
   </trkpt>
   <trkpt lat="53.3261040" lon="-7.9871070">
    <ele>40.7</ele>
    <time>2025-07-05T12:45:19Z</time>
   </trkpt>
   <trkpt lat="53.3260380" lon="-7.9870820">
    <ele>41.1</ele>
    <time>2025-07-05T12:45:24Z</time>
   </trkpt>
   <trkpt lat="53.3260250" lon="-7.9869990">
    <ele>41.5</ele>
    <time>2025-07-05T12:45:43Z</time>
   </trkpt>
   <trkpt lat="53.3260420" lon="-7.9868600">
    <ele>41.6</ele>
    <time>2025-07-05T12:45:49Z</time>
   </trkpt>
   <trkpt lat="53.3260210" lon="-7.9867340">
    <ele>41.7</ele>
    <time>2025-07-05T12:45:54Z</time>
   </trkpt>
   <trkpt lat="53.3260090" lon="-7.9866450">
    <ele>41.9</ele>
    <time>2025-07-05T12:45:59Z</time>
   </trkpt>
   <trkpt lat="53.3260220" lon="-7.9865450">
    <ele>42.0</ele>
    <time>2025-07-05T12:46:05Z</time>
   </trkpt>
   <trkpt lat="53.3260270" lon="-7.9864620">
    <ele>42.2</ele>
    <time>2025-07-05T12:46:10Z</time>
   </trkpt>
   <trkpt lat="53.3260300" lon="-7.9863750">
    <ele>42.3</ele>
    <time>2025-07-05T12:46:37Z</time>
   </trkpt>
   <trkpt lat="53.3260320" lon="-7.9862850">
    <ele>42.4</ele>
    <time>2025-07-05T12:46:42Z</time>
   </trkpt>
   <trkpt lat="53.3260610" lon="-7.9862250">
    <ele>42.5</ele>
    <time>2025-07-05T12:47:03Z</time>
   </trkpt>
   <trkpt lat="53.3261050" lon="-7.9861870">
    <ele>42.4</ele>
    <time>2025-07-05T12:47:09Z</time>
   </trkpt>
   <trkpt lat="53.3260770" lon="-7.9861130">
    <ele>42.4</ele>
    <time>2025-07-05T12:47:23Z</time>
   </trkpt>
   <trkpt lat="53.3260760" lon="-7.9859780">
    <ele>42.5</ele>
    <time>2025-07-05T12:47:28Z</time>
   </trkpt>
   <trkpt lat="53.3260990" lon="-7.9858560">
    <ele>42.6</ele>
    <time>2025-07-05T12:47:33Z</time>
   </trkpt>
   <trkpt lat="53.3261210" lon="-7.9857720">
    <ele>42.6</ele>
    <time>2025-07-05T12:47:38Z</time>
   </trkpt>
   <trkpt lat="53.3261390" lon="-7.9856990">
    <ele>42.6</ele>
    <time>2025-07-05T12:47:43Z</time>
   </trkpt>
   <trkpt lat="53.3261600" lon="-7.9856280">
    <ele>42.5</ele>
    <time>2025-07-05T12:47:57Z</time>
   </trkpt>
   <trkpt lat="53.3261920" lon="-7.9855290">
    <ele>42.3</ele>
    <time>2025-07-05T12:48:02Z</time>
   </trkpt>
   <trkpt lat="53.3262260" lon="-7.9854670">
    <ele>42.2</ele>
    <time>2025-07-05T12:48:07Z</time>
   </trkpt>
   <trkpt lat="53.3262630" lon="-7.9854190">
    <ele>42.0</ele>
    <time>2025-07-05T12:48:13Z</time>
   </trkpt>
   <trkpt lat="53.3262940" lon="-7.9853620">
    <ele>41.8</ele>
    <time>2025-07-05T12:48:19Z</time>
   </trkpt>
   <trkpt lat="53.3263260" lon="-7.9852970">
    <ele>41.4</ele>
    <time>2025-07-05T12:48:44Z</time>
   </trkpt>
   <trkpt lat="53.3263500" lon="-7.9852320">
    <ele>41.3</ele>
    <time>2025-07-05T12:49:19Z</time>
   </trkpt>
   <trkpt lat="53.3263700" lon="-7.9851600">
    <ele>41.2</ele>
    <time>2025-07-05T12:49:24Z</time>
   </trkpt>
   <trkpt lat="53.3264070" lon="-7.9851140">
    <ele>41.1</ele>
    <time>2025-07-05T12:49:31Z</time>
   </trkpt>
   <trkpt lat="53.3264310" lon="-7.9850480">
    <ele>40.9</ele>
    <time>2025-07-05T12:49:38Z</time>
   </trkpt>
   <trkpt lat="53.3264590" lon="-7.9849760">
    <ele>40.8</ele>
    <time>2025-07-05T12:49:43Z</time>
   </trkpt>
   <trkpt lat="53.3264730" lon="-7.9849030">
    <ele>40.8</ele>
    <time>2025-07-05T12:49:48Z</time>
   </trkpt>
   <trkpt lat="53.3264840" lon="-7.9848260">
    <ele>40.8</ele>
    <time>2025-07-05T12:49:55Z</time>
   </trkpt>
   <trkpt lat="53.3265230" lon="-7.9847870">
    <ele>40.7</ele>
    <time>2025-07-05T12:50:36Z</time>
   </trkpt>
   <trkpt lat="53.3265740" lon="-7.9848020">
    <ele>40.6</ele>
    <time>2025-07-05T12:50:41Z</time>
   </trkpt>
   <trkpt lat="53.3266210" lon="-7.9848010">
    <ele>40.5</ele>
    <time>2025-07-05T12:50:48Z</time>
   </trkpt>
   <trkpt lat="53.3266670" lon="-7.9847910">
    <ele>40.4</ele>
    <time>2025-07-05T12:50:55Z</time>
   </trkpt>
   <trkpt lat="53.3267090" lon="-7.9847600">
    <ele>40.3</ele>
    <time>2025-07-05T12:51:22Z</time>
   </trkpt>
   <trkpt lat="53.3267540" lon="-7.9847330">
    <ele>40.3</ele>
    <time>2025-07-05T12:51:28Z</time>
   </trkpt>
   <trkpt lat="53.3267990" lon="-7.9847350">
    <ele>40.3</ele>
    <time>2025-07-05T12:52:14Z</time>
   </trkpt>
   <trkpt lat="53.3268330" lon="-7.9847970">
    <ele>40.2</ele>
    <time>2025-07-05T12:53:05Z</time>
   </trkpt>
   <trkpt lat="53.3268680" lon="-7.9848430">
    <ele>40.2</ele>
    <time>2025-07-05T12:53:10Z</time>
   </trkpt>
   <trkpt lat="53.3269130" lon="-7.9848320">
    <ele>40.2</ele>
    <time>2025-07-05T12:53:18Z</time>
   </trkpt>
   <trkpt lat="53.3269620" lon="-7.9848390">
    <ele>40.2</ele>
    <time>2025-07-05T12:53:23Z</time>
   </trkpt>
   <trkpt lat="53.3269450" lon="-7.9849110">
    <ele>40.2</ele>
    <time>2025-07-05T12:53:29Z</time>
   </trkpt>
   <trkpt lat="53.3269440" lon="-7.9850170">
    <ele>40.0</ele>
    <time>2025-07-05T12:53:35Z</time>
   </trkpt>
   <trkpt lat="53.3269350" lon="-7.9850920">
    <ele>39.8</ele>
    <time>2025-07-05T12:53:41Z</time>
   </trkpt>
   <trkpt lat="53.3268930" lon="-7.9851350">
    <ele>39.7</ele>
    <time>2025-07-05T12:53:47Z</time>
   </trkpt>
   <trkpt lat="53.3268620" lon="-7.9851930">
    <ele>39.5</ele>
    <time>2025-07-05T12:53:53Z</time>
   </trkpt>
   <trkpt lat="53.3269050" lon="-7.9852280">
    <ele>39.4</ele>
    <time>2025-07-05T12:54:15Z</time>
   </trkpt>
   <trkpt lat="53.3269450" lon="-7.9853010">
    <ele>39.2</ele>
    <time>2025-07-05T12:54:20Z</time>
   </trkpt>
   <trkpt lat="53.3269830" lon="-7.9853460">
    <ele>38.9</ele>
    <time>2025-07-05T12:54:38Z</time>
   </trkpt>
   <trkpt lat="53.3269330" lon="-7.9853620">
    <ele>38.8</ele>
    <time>2025-07-05T12:55:47Z</time>
   </trkpt>
   <trkpt lat="53.3269150" lon="-7.9854340">
    <ele>38.8</ele>
    <time>2025-07-05T12:55:52Z</time>
   </trkpt>
   <trkpt lat="53.3269590" lon="-7.9853920">
    <ele>38.7</ele>
    <time>2025-07-05T12:56:04Z</time>
   </trkpt>
   <trkpt lat="53.3269810" lon="-7.9854590">
    <ele>38.6</ele>
    <time>2025-07-05T12:56:14Z</time>
   </trkpt>
   <trkpt lat="53.3270180" lon="-7.9855290">
    <ele>38.3</ele>
    <time>2025-07-05T12:56:19Z</time>
   </trkpt>
   <trkpt lat="53.3269840" lon="-7.9855900">
    <ele>38.0</ele>
    <time>2025-07-05T12:57:10Z</time>
   </trkpt>
   <trkpt lat="53.3269990" lon="-7.9856970">
    <ele>37.8</ele>
    <time>2025-07-05T12:57:15Z</time>
   </trkpt>
   <trkpt lat="53.3270320" lon="-7.9858030">
    <ele>37.3</ele>
    <time>2025-07-05T12:57:21Z</time>
   </trkpt>
   <trkpt lat="53.3270640" lon="-7.9857480">
    <ele>36.8</ele>
    <time>2025-07-05T12:57:36Z</time>
   </trkpt>
   <trkpt lat="53.3270280" lon="-7.9857000">
    <ele>36.9</ele>
    <time>2025-07-05T12:57:43Z</time>
   </trkpt>
   <trkpt lat="53.3270380" lon="-7.9857760">
    <ele>37.1</ele>
    <time>2025-07-05T12:58:04Z</time>
   </trkpt>
   <trkpt lat="53.3270400" lon="-7.9858530">
    <ele>36.9</ele>
    <time>2025-07-05T12:58:09Z</time>
   </trkpt>
   <trkpt lat="53.3270460" lon="-7.9857760">
    <ele>36.7</ele>
    <time>2025-07-05T12:58:39Z</time>
   </trkpt>
   <trkpt lat="53.3270480" lon="-7.9858530">
    <ele>36.7</ele>
    <time>2025-07-05T12:59:07Z</time>
   </trkpt>
   <trkpt lat="53.3269980" lon="-7.9858400">
    <ele>36.7</ele>
    <time>2025-07-05T13:01:08Z</time>
   </trkpt>
   <trkpt lat="53.3269710" lon="-7.9859060">
    <ele>36.8</ele>
    <time>2025-07-05T13:01:16Z</time>
   </trkpt>
   <trkpt lat="53.3269460" lon="-7.9859950">
    <ele>36.8</ele>
    <time>2025-07-05T13:01:21Z</time>
   </trkpt>
   <trkpt lat="53.3269460" lon="-7.9860750">
    <ele>36.8</ele>
    <time>2025-07-05T13:01:27Z</time>
   </trkpt>
   <trkpt lat="53.3269200" lon="-7.9861460">
    <ele>36.7</ele>
    <time>2025-07-05T13:01:32Z</time>
   </trkpt>
   <trkpt lat="53.3268990" lon="-7.9862340">
    <ele>36.6</ele>
    <time>2025-07-05T13:01:38Z</time>
   </trkpt>
   <trkpt lat="53.3268520" lon="-7.9862730">
    <ele>36.6</ele>
    <time>2025-07-05T13:02:20Z</time>
   </trkpt>
   <trkpt lat="53.3268020" lon="-7.9863300">
    <ele>36.7</ele>
    <time>2025-07-05T13:02:25Z</time>
   </trkpt>
   <trkpt lat="53.3267620" lon="-7.9864090">
    <ele>36.8</ele>
    <time>2025-07-05T13:02:31Z</time>
   </trkpt>
   <trkpt lat="53.3267130" lon="-7.9863670">
    <ele>37.1</ele>
    <time>2025-07-05T13:02:59Z</time>
   </trkpt>
   <trkpt lat="53.3266820" lon="-7.9864340">
    <ele>37.5</ele>
    <time>2025-07-05T13:04:33Z</time>
   </trkpt>
   <trkpt lat="53.3266480" lon="-7.9864910">
    <ele>37.5</ele>
    <time>2025-07-05T13:04:38Z</time>
   </trkpt>
   <trkpt lat="53.3266430" lon="-7.9865660">
    <ele>37.5</ele>
    <time>2025-07-05T13:04:56Z</time>
   </trkpt>
   <trkpt lat="53.3265970" lon="-7.9865730">
    <ele>37.5</ele>
    <time>2025-07-05T13:05:15Z</time>
   </trkpt>
   <trkpt lat="53.3265480" lon="-7.9866050">
    <ele>37.7</ele>
    <time>2025-07-05T13:05:20Z</time>
   </trkpt>
   <trkpt lat="53.3265130" lon="-7.9866720">
    <ele>38.0</ele>
    <time>2025-07-05T13:05:37Z</time>
   </trkpt>
   <trkpt lat="53.3264680" lon="-7.9866950">
    <ele>38.2</ele>
    <time>2025-07-05T13:05:42Z</time>
   </trkpt>
   <trkpt lat="53.3264040" lon="-7.9867070">
    <ele>38.5</ele>
    <time>2025-07-05T13:05:47Z</time>
   </trkpt>
   <trkpt lat="53.3263910" lon="-7.9866310">
    <ele>38.8</ele>
    <time>2025-07-05T13:06:01Z</time>
   </trkpt>
   <trkpt lat="53.3263400" lon="-7.9865740">
    <ele>39.3</ele>
    <time>2025-07-05T13:06:06Z</time>
   </trkpt>
   <trkpt lat="53.3263150" lon="-7.9865050">
    <ele>39.9</ele>
    <time>2025-07-05T13:06:20Z</time>
   </trkpt>
   <trkpt lat="53.3263080" lon="-7.9864290">
    <ele>40.0</ele>
    <time>2025-07-05T13:06:25Z</time>
   </trkpt>
   <trkpt lat="53.3263150" lon="-7.9863490">
    <ele>40.5</ele>
    <time>2025-07-05T13:07:08Z</time>
   </trkpt>
   <trkpt lat="53.3263450" lon="-7.9862800">
    <ele>40.4</ele>
    <time>2025-07-05T13:07:33Z</time>
   </trkpt>
   <trkpt lat="53.3263650" lon="-7.9861540">
    <ele>40.3</ele>
    <time>2025-07-05T13:07:39Z</time>
   </trkpt>
   <trkpt lat="53.3263670" lon="-7.9860740">
    <ele>40.5</ele>
    <time>2025-07-05T13:07:44Z</time>
   </trkpt>
   <trkpt lat="53.3263900" lon="-7.9859940">
    <ele>40.5</ele>
    <time>2025-07-05T13:07:49Z</time>
   </trkpt>
   <trkpt lat="53.3264050" lon="-7.9859140">
    <ele>40.5</ele>
    <time>2025-07-05T13:07:55Z</time>
   </trkpt>
   <trkpt lat="53.3264040" lon="-7.9858360">
    <ele>40.6</ele>
    <time>2025-07-05T13:08:01Z</time>
   </trkpt>
   <trkpt lat="53.3264050" lon="-7.9859220">
    <ele>40.6</ele>
    <time>2025-07-05T13:08:26Z</time>
   </trkpt>
   <trkpt lat="53.3263710" lon="-7.9859720">
    <ele>40.8</ele>
    <time>2025-07-05T13:09:10Z</time>
   </trkpt>
   <trkpt lat="53.3263580" lon="-7.9860490">
    <ele>40.6</ele>
    <time>2025-07-05T13:09:41Z</time>
   </trkpt>
   <trkpt lat="53.3263180" lon="-7.9861030">
    <ele>40.7</ele>
    <time>2025-07-05T13:09:46Z</time>
   </trkpt>
   <trkpt lat="53.3262790" lon="-7.9861980">
    <ele>40.8</ele>
    <time>2025-07-05T13:09:52Z</time>
   </trkpt>
   <trkpt lat="53.3262510" lon="-7.9861340">
    <ele>41.1</ele>
    <time>2025-07-05T13:10:03Z</time>
   </trkpt>
   <trkpt lat="53.3262090" lon="-7.9860900">
    <ele>41.4</ele>
    <time>2025-07-05T13:10:14Z</time>
   </trkpt>
   <trkpt lat="53.3262120" lon="-7.9860030">
    <ele>41.8</ele>
    <time>2025-07-05T13:10:50Z</time>
   </trkpt>
   <trkpt lat="53.3262260" lon="-7.9859280">
    <ele>41.8</ele>
    <time>2025-07-05T13:10:58Z</time>
   </trkpt>
   <trkpt lat="53.3262060" lon="-7.9859990">
    <ele>41.9</ele>
    <time>2025-07-05T13:12:10Z</time>
   </trkpt>
   <trkpt lat="53.3261600" lon="-7.9859810">
    <ele>42.0</ele>
    <time>2025-07-05T13:12:18Z</time>
   </trkpt>
   <trkpt lat="53.3261610" lon="-7.9858980">
    <ele>42.1</ele>
    <time>2025-07-05T13:12:24Z</time>
   </trkpt>
   <trkpt lat="53.3261800" lon="-7.9858240">
    <ele>42.2</ele>
    <time>2025-07-05T13:12:49Z</time>
   </trkpt>
   <trkpt lat="53.3261550" lon="-7.9858940">
    <ele>42.2</ele>
    <time>2025-07-05T13:13:54Z</time>
   </trkpt>
   <trkpt lat="53.3261490" lon="-7.9859750">
    <ele>42.3</ele>
    <time>2025-07-05T13:13:59Z</time>
   </trkpt>
   <trkpt lat="53.3261220" lon="-7.9860360">
    <ele>42.3</ele>
    <time>2025-07-05T13:14:05Z</time>
   </trkpt>
   <trkpt lat="53.3260930" lon="-7.9861170">
    <ele>42.3</ele>
    <time>2025-07-05T13:14:10Z</time>
   </trkpt>
   <trkpt lat="53.3260570" lon="-7.9861840">
    <ele>42.4</ele>
    <time>2025-07-05T13:14:16Z</time>
   </trkpt>
   <trkpt lat="53.3260320" lon="-7.9862480">
    <ele>42.5</ele>
    <time>2025-07-05T13:14:23Z</time>
   </trkpt>
   <trkpt lat="53.3260340" lon="-7.9863280">
    <ele>42.5</ele>
    <time>2025-07-05T13:14:28Z</time>
   </trkpt>
   <trkpt lat="53.3260320" lon="-7.9864040">
    <ele>42.4</ele>
    <time>2025-07-05T13:14:49Z</time>
   </trkpt>
   <trkpt lat="53.3260200" lon="-7.9865160">
    <ele>42.3</ele>
    <time>2025-07-05T13:14:54Z</time>
   </trkpt>
   <trkpt lat="53.3260030" lon="-7.9866240">
    <ele>42.3</ele>
    <time>2025-07-05T13:15:00Z</time>
   </trkpt>
   <trkpt lat="53.3259950" lon="-7.9867240">
    <ele>42.2</ele>
    <time>2025-07-05T13:15:05Z</time>
   </trkpt>
   <trkpt lat="53.3259700" lon="-7.9868120">
    <ele>42.2</ele>
    <time>2025-07-05T13:15:10Z</time>
   </trkpt>
   <trkpt lat="53.3259510" lon="-7.9868900">
    <ele>42.2</ele>
    <time>2025-07-05T13:15:16Z</time>
   </trkpt>
   <trkpt lat="53.3259400" lon="-7.9869700">
    <ele>42.2</ele>
    <time>2025-07-05T13:15:23Z</time>
   </trkpt>
   <trkpt lat="53.3259550" lon="-7.9870420">
    <ele>42.1</ele>
    <time>2025-07-05T13:15:35Z</time>
   </trkpt>
   <trkpt lat="53.3259840" lon="-7.9871050">
    <ele>41.9</ele>
    <time>2025-07-05T13:16:03Z</time>
   </trkpt>
   <trkpt lat="53.3259080" lon="-7.9870800">
    <ele>42.0</ele>
    <time>2025-07-05T13:16:08Z</time>
   </trkpt>
   <trkpt lat="53.3258910" lon="-7.9871670">
    <ele>42.2</ele>
    <time>2025-07-05T13:16:14Z</time>
   </trkpt>
   <trkpt lat="53.3259280" lon="-7.9873190">
    <ele>42.0</ele>
    <time>2025-07-05T13:16:19Z</time>
   </trkpt>
   <trkpt lat="53.3258680" lon="-7.9874190">
    <ele>42.0</ele>
    <time>2025-07-05T13:16:25Z</time>
   </trkpt>
   <trkpt lat="53.3258150" lon="-7.9874920">
    <ele>42.0</ele>
    <time>2025-07-05T13:16:30Z</time>
   </trkpt>
   <trkpt lat="53.3258300" lon="-7.9875720">
    <ele>42.0</ele>
    <time>2025-07-05T13:16:43Z</time>
   </trkpt>
   <trkpt lat="53.3258770" lon="-7.9876530">
    <ele>41.8</ele>
    <time>2025-07-05T13:16:48Z</time>
   </trkpt>
   <trkpt lat="53.3259490" lon="-7.9876880">
    <ele>41.5</ele>
    <time>2025-07-05T13:16:54Z</time>
   </trkpt>
   <trkpt lat="53.3260280" lon="-7.9876900">
    <ele>41.1</ele>
    <time>2025-07-05T13:16:59Z</time>
   </trkpt>
   <trkpt lat="53.3260820" lon="-7.9877150">
    <ele>40.7</ele>
    <time>2025-07-05T13:17:04Z</time>
   </trkpt>
   <trkpt lat="53.3260730" lon="-7.9877910">
    <ele>40.3</ele>
    <time>2025-07-05T13:17:32Z</time>
   </trkpt>
   <trkpt lat="53.3261150" lon="-7.9879080">
    <ele>40.1</ele>
    <time>2025-07-05T13:17:37Z</time>
   </trkpt>
   <trkpt lat="53.3261400" lon="-7.9880020">
    <ele>39.8</ele>
    <time>2025-07-05T13:17:43Z</time>
   </trkpt>
   <trkpt lat="53.3260940" lon="-7.9880960">
    <ele>39.6</ele>
    <time>2025-07-05T13:17:48Z</time>
   </trkpt>
   <trkpt lat="53.3260620" lon="-7.9881820">
    <ele>39.5</ele>
    <time>2025-07-05T13:17:53Z</time>
   </trkpt>
   <trkpt lat="53.3260650" lon="-7.9882600">
    <ele>39.4</ele>
    <time>2025-07-05T13:17:58Z</time>
   </trkpt>
   <trkpt lat="53.3260140" lon="-7.9883410">
    <ele>39.3</ele>
    <time>2025-07-05T13:18:03Z</time>
   </trkpt>
   <trkpt lat="53.3260020" lon="-7.9884460">
    <ele>39.2</ele>
    <time>2025-07-05T13:18:09Z</time>
   </trkpt>
   <trkpt lat="53.3260010" lon="-7.9885420">
    <ele>39.0</ele>
    <time>2025-07-05T13:18:14Z</time>
   </trkpt>
   <trkpt lat="53.3260250" lon="-7.9886250">
    <ele>38.6</ele>
    <time>2025-07-05T13:18:20Z</time>
   </trkpt>
   <trkpt lat="53.3260480" lon="-7.9887120">
    <ele>38.2</ele>
    <time>2025-07-05T13:18:25Z</time>
   </trkpt>
   <trkpt lat="53.3260740" lon="-7.9887990">
    <ele>37.7</ele>
    <time>2025-07-05T13:18:30Z</time>
   </trkpt>
   <trkpt lat="53.3260910" lon="-7.9888830">
    <ele>37.2</ele>
    <time>2025-07-05T13:18:35Z</time>
   </trkpt>
   <trkpt lat="53.3261090" lon="-7.9889590">
    <ele>36.7</ele>
    <time>2025-07-05T13:18:40Z</time>
   </trkpt>
   <trkpt lat="53.3261220" lon="-7.9890510">
    <ele>36.2</ele>
    <time>2025-07-05T13:18:45Z</time>
   </trkpt>
   <trkpt lat="53.3261510" lon="-7.9891270">
    <ele>35.6</ele>
    <time>2025-07-05T13:18:51Z</time>
   </trkpt>
   <trkpt lat="53.3261400" lon="-7.9892040">
    <ele>35.2</ele>
    <time>2025-07-05T13:18:57Z</time>
   </trkpt>
   <trkpt lat="53.3261890" lon="-7.9892070">
    <ele>34.6</ele>
    <time>2025-07-05T13:19:25Z</time>
   </trkpt>
   <trkpt lat="53.3262710" lon="-7.9892580">
    <ele>34.2</ele>
    <time>2025-07-05T13:19:31Z</time>
   </trkpt>
   <trkpt lat="53.3263180" lon="-7.9893610">
    <ele>33.6</ele>
    <time>2025-07-05T13:19:36Z</time>
   </trkpt>
   <trkpt lat="53.3263680" lon="-7.9894340">
    <ele>33.1</ele>
    <time>2025-07-05T13:19:42Z</time>
   </trkpt>
   <trkpt lat="53.3264300" lon="-7.9894870">
    <ele>32.7</ele>
    <time>2025-07-05T13:19:47Z</time>
   </trkpt>
   <trkpt lat="53.3264790" lon="-7.9895320">
    <ele>32.4</ele>
    <time>2025-07-05T13:19:53Z</time>
   </trkpt>
   <trkpt lat="53.3265160" lon="-7.9895750">
    <ele>32.2</ele>
    <time>2025-07-05T13:19:58Z</time>
   </trkpt>
   <trkpt lat="53.3265610" lon="-7.9895930">
    <ele>32.1</ele>
    <time>2025-07-05T13:20:05Z</time>
   </trkpt>
   <trkpt lat="53.3266050" lon="-7.9896140">
    <ele>32.0</ele>
    <time>2025-07-05T13:20:12Z</time>
   </trkpt>
   <trkpt lat="53.3266240" lon="-7.9897050">
    <ele>32.0</ele>
    <time>2025-07-05T13:20:17Z</time>
   </trkpt>
   <trkpt lat="53.3266590" lon="-7.9897610">
    <ele>32.1</ele>
    <time>2025-07-05T13:20:23Z</time>
   </trkpt>
   <trkpt lat="53.3266920" lon="-7.9898120">
    <ele>32.1</ele>
    <time>2025-07-05T13:20:29Z</time>
   </trkpt>
   <trkpt lat="53.3267390" lon="-7.9898390">
    <ele>32.2</ele>
    <time>2025-07-05T13:20:38Z</time>
   </trkpt>
   <trkpt lat="53.3267760" lon="-7.9898960">
    <ele>32.3</ele>
    <time>2025-07-05T13:20:43Z</time>
   </trkpt>
   <trkpt lat="53.3268150" lon="-7.9899370">
    <ele>32.3</ele>
    <time>2025-07-05T13:20:48Z</time>
   </trkpt>
   <trkpt lat="53.3268620" lon="-7.9899800">
    <ele>32.5</ele>
    <time>2025-07-05T13:20:54Z</time>
   </trkpt>
   <trkpt lat="53.3269000" lon="-7.9900380">
    <ele>32.5</ele>
    <time>2025-07-05T13:21:01Z</time>
   </trkpt>
   <trkpt lat="53.3268770" lon="-7.9901040">
    <ele>32.4</ele>
    <time>2025-07-05T13:21:25Z</time>
   </trkpt>
   <trkpt lat="53.3268460" lon="-7.9902230">
    <ele>32.2</ele>
    <time>2025-07-05T13:21:30Z</time>
   </trkpt>
   <trkpt lat="53.3268140" lon="-7.9902880">
    <ele>31.8</ele>
    <time>2025-07-05T13:21:35Z</time>
   </trkpt>
   <trkpt lat="53.3268450" lon="-7.9902200">
    <ele>31.6</ele>
    <time>2025-07-05T13:21:52Z</time>
   </trkpt>
   <trkpt lat="53.3268820" lon="-7.9901540">
    <ele>31.8</ele>
    <time>2025-07-05T13:21:57Z</time>
   </trkpt>
   <trkpt lat="53.3269020" lon="-7.9900600">
    <ele>32.1</ele>
    <time>2025-07-05T13:22:02Z</time>
   </trkpt>
   <trkpt lat="53.3268670" lon="-7.9899990">
    <ele>32.5</ele>
    <time>2025-07-05T13:22:29Z</time>
   </trkpt>
   <trkpt lat="53.3268260" lon="-7.9899250">
    <ele>32.5</ele>
    <time>2025-07-05T13:22:35Z</time>
   </trkpt>
   <trkpt lat="53.3267790" lon="-7.9898830">
    <ele>32.5</ele>
    <time>2025-07-05T13:23:05Z</time>
   </trkpt>
   <trkpt lat="53.3267280" lon="-7.9898110">
    <ele>32.4</ele>
    <time>2025-07-05T13:23:10Z</time>
   </trkpt>
   <trkpt lat="53.3266860" lon="-7.9897720">
    <ele>32.3</ele>
    <time>2025-07-05T13:23:16Z</time>
   </trkpt>
   <trkpt lat="53.3266420" lon="-7.9897430">
    <ele>32.2</ele>
    <time>2025-07-05T13:23:22Z</time>
   </trkpt>
   <trkpt lat="53.3266080" lon="-7.9896850">
    <ele>32.1</ele>
    <time>2025-07-05T13:23:28Z</time>
   </trkpt>
   <trkpt lat="53.3265890" lon="-7.9896140">
    <ele>32.0</ele>
    <time>2025-07-05T13:23:35Z</time>
   </trkpt>
   <trkpt lat="53.3265470" lon="-7.9895730">
    <ele>32.0</ele>
    <time>2025-07-05T13:23:41Z</time>
   </trkpt>
   <trkpt lat="53.3264980" lon="-7.9895510">
    <ele>32.0</ele>
    <time>2025-07-05T13:23:47Z</time>
   </trkpt>
   <trkpt lat="53.3264510" lon="-7.9894890">
    <ele>32.1</ele>
    <time>2025-07-05T13:23:52Z</time>
   </trkpt>
   <trkpt lat="53.3264150" lon="-7.9894210">
    <ele>32.3</ele>
    <time>2025-07-05T13:23:57Z</time>
   </trkpt>
   <trkpt lat="53.3263710" lon="-7.9893590">
    <ele>32.5</ele>
    <time>2025-07-05T13:24:02Z</time>
   </trkpt>
   <trkpt lat="53.3263150" lon="-7.9893110">
    <ele>32.8</ele>
    <time>2025-07-05T13:24:08Z</time>
   </trkpt>
   <trkpt lat="53.3262620" lon="-7.9892740">
    <ele>33.2</ele>
    <time>2025-07-05T13:24:13Z</time>
   </trkpt>
   <trkpt lat="53.3262210" lon="-7.9892280">
    <ele>33.6</ele>
    <time>2025-07-05T13:24:18Z</time>
   </trkpt>
   <trkpt lat="53.3261850" lon="-7.9891620">
    <ele>34.0</ele>
    <time>2025-07-05T13:24:23Z</time>
   </trkpt>
   <trkpt lat="53.3261660" lon="-7.9890820">
    <ele>34.5</ele>
    <time>2025-07-05T13:24:29Z</time>
   </trkpt>
   <trkpt lat="53.3261530" lon="-7.9890080">
    <ele>35.0</ele>
    <time>2025-07-05T13:24:34Z</time>
   </trkpt>
   <trkpt lat="53.3261140" lon="-7.9889590">
    <ele>35.5</ele>
    <time>2025-07-05T13:24:40Z</time>
   </trkpt>
   <trkpt lat="53.3260570" lon="-7.9889580">
    <ele>36.0</ele>
    <time>2025-07-05T13:24:45Z</time>
   </trkpt>
   <trkpt lat="53.3260210" lon="-7.9889100">
    <ele>36.5</ele>
    <time>2025-07-05T13:24:54Z</time>
   </trkpt>
   <trkpt lat="53.3259880" lon="-7.9888550">
    <ele>37.0</ele>
    <time>2025-07-05T13:25:00Z</time>
   </trkpt>
   <trkpt lat="53.3259530" lon="-7.9888060">
    <ele>37.5</ele>
    <time>2025-07-05T13:25:06Z</time>
   </trkpt>
   <trkpt lat="53.3259250" lon="-7.9887370">
    <ele>37.9</ele>
    <time>2025-07-05T13:25:13Z</time>
   </trkpt>
   <trkpt lat="53.3258930" lon="-7.9886710">
    <ele>38.3</ele>
    <time>2025-07-05T13:25:18Z</time>
   </trkpt>
   <trkpt lat="53.3258660" lon="-7.9886030">
    <ele>38.8</ele>
    <time>2025-07-05T13:25:30Z</time>
   </trkpt>
   <trkpt lat="53.3258190" lon="-7.9885440">
    <ele>39.1</ele>
    <time>2025-07-05T13:25:36Z</time>
   </trkpt>
   <trkpt lat="53.3257790" lon="-7.9885000">
    <ele>39.3</ele>
    <time>2025-07-05T13:25:41Z</time>
   </trkpt>
   <trkpt lat="53.3257840" lon="-7.9884180">
    <ele>39.7</ele>
    <time>2025-07-05T13:25:52Z</time>
   </trkpt>
   <trkpt lat="53.3258080" lon="-7.9883360">
    <ele>39.8</ele>
    <time>2025-07-05T13:25:58Z</time>
   </trkpt>
   <trkpt lat="53.3258560" lon="-7.9882670">
    <ele>40.0</ele>
    <time>2025-07-05T13:26:04Z</time>
   </trkpt>
   <trkpt lat="53.3258890" lon="-7.9881880">
    <ele>40.1</ele>
    <time>2025-07-05T13:26:09Z</time>
   </trkpt>
   <trkpt lat="53.3259160" lon="-7.9881190">
    <ele>40.2</ele>
    <time>2025-07-05T13:26:14Z</time>
   </trkpt>
   <trkpt lat="53.3259160" lon="-7.9880340">
    <ele>40.4</ele>
    <time>2025-07-05T13:26:34Z</time>
   </trkpt>
   <trkpt lat="53.3258940" lon="-7.9879370">
    <ele>40.6</ele>
    <time>2025-07-05T13:26:39Z</time>
   </trkpt>
   <trkpt lat="53.3258700" lon="-7.9878400">
    <ele>40.9</ele>
    <time>2025-07-05T13:26:44Z</time>
   </trkpt>
   <trkpt lat="53.3258500" lon="-7.9877520">
    <ele>41.1</ele>
    <time>2025-07-05T13:26:50Z</time>
   </trkpt>
   <trkpt lat="53.3258330" lon="-7.9876740">
    <ele>41.4</ele>
    <time>2025-07-05T13:26:55Z</time>
   </trkpt>
   <trkpt lat="53.3258130" lon="-7.9875810">
    <ele>41.6</ele>
    <time>2025-07-05T13:27:01Z</time>
   </trkpt>
   <trkpt lat="53.3258210" lon="-7.9874950">
    <ele>41.8</ele>
    <time>2025-07-05T13:27:06Z</time>
   </trkpt>
   <trkpt lat="53.3258360" lon="-7.9874080">
    <ele>42.0</ele>
    <time>2025-07-05T13:27:21Z</time>
   </trkpt>
   <trkpt lat="53.3257850" lon="-7.9873160">
    <ele>42.2</ele>
    <time>2025-07-05T13:27:26Z</time>
   </trkpt>
   <trkpt lat="53.3257240" lon="-7.9872910">
    <ele>42.4</ele>
    <time>2025-07-05T13:27:32Z</time>
   </trkpt>
   <trkpt lat="53.3256650" lon="-7.9872990">
    <ele>42.5</ele>
    <time>2025-07-05T13:27:37Z</time>
   </trkpt>
   <trkpt lat="53.3256010" lon="-7.9873050">
    <ele>42.6</ele>
    <time>2025-07-05T13:27:42Z</time>
   </trkpt>
   <trkpt lat="53.3255520" lon="-7.9873790">
    <ele>42.6</ele>
    <time>2025-07-05T13:27:48Z</time>
   </trkpt>
   <trkpt lat="53.3255340" lon="-7.9874500">
    <ele>42.5</ele>
    <time>2025-07-05T13:27:53Z</time>
   </trkpt>
   <trkpt lat="53.3255030" lon="-7.9875210">
    <ele>42.4</ele>
    <time>2025-07-05T13:27:59Z</time>
   </trkpt>
   <trkpt lat="53.3254850" lon="-7.9876060">
    <ele>42.3</ele>
    <time>2025-07-05T13:28:04Z</time>
   </trkpt>
   <trkpt lat="53.3255070" lon="-7.9875220">
    <ele>42.2</ele>
    <time>2025-07-05T13:28:19Z</time>
   </trkpt>
   <trkpt lat="53.3255000" lon="-7.9873870">
    <ele>42.3</ele>
    <time>2025-07-05T13:28:24Z</time>
   </trkpt>
   <trkpt lat="53.3254120" lon="-7.9873400">
    <ele>42.4</ele>
    <time>2025-07-05T13:28:29Z</time>
   </trkpt>
   <trkpt lat="53.3253360" lon="-7.9873210">
    <ele>42.4</ele>
    <time>2025-07-05T13:28:34Z</time>
   </trkpt>
   <trkpt lat="53.3252580" lon="-7.9873320">
    <ele>42.3</ele>
    <time>2025-07-05T13:28:40Z</time>
   </trkpt>
   <trkpt lat="53.3251860" lon="-7.9873390">
    <ele>42.3</ele>
    <time>2025-07-05T13:28:45Z</time>
   </trkpt>
   <trkpt lat="53.3251250" lon="-7.9873200">
    <ele>42.2</ele>
    <time>2025-07-05T13:28:51Z</time>
   </trkpt>
   <trkpt lat="53.3250570" lon="-7.9872760">
    <ele>42.3</ele>
    <time>2025-07-05T13:28:56Z</time>
   </trkpt>
   <trkpt lat="53.3250770" lon="-7.9872040">
    <ele>42.3</ele>
    <time>2025-07-05T13:29:01Z</time>
   </trkpt>
   <trkpt lat="53.3250610" lon="-7.9872750">
    <ele>42.3</ele>
    <time>2025-07-05T13:36:47Z</time>
   </trkpt>
   <trkpt lat="53.3250990" lon="-7.9872320">
    <ele>42.3</ele>
    <time>2025-07-05T13:39:19Z</time>
   </trkpt>
   <trkpt lat="53.3250530" lon="-7.9872300">
    <ele>42.3</ele>
    <time>2025-07-05T13:46:30Z</time>
   </trkpt>
   <trkpt lat="53.3250890" lon="-7.9872800">
    <ele>42.3</ele>
    <time>2025-07-05T13:55:10Z</time>
   </trkpt>
   <trkpt lat="53.3251590" lon="-7.9873540">
    <ele>42.3</ele>
    <time>2025-07-05T13:55:15Z</time>
   </trkpt>
   <trkpt lat="53.3252190" lon="-7.9872620">
    <ele>42.3</ele>
    <time>2025-07-05T13:55:20Z</time>
   </trkpt>
   <trkpt lat="53.3251820" lon="-7.9873120">
    <ele>42.3</ele>
    <time>2025-07-05T13:55:55Z</time>
   </trkpt>
   <trkpt lat="53.3251830" lon="-7.9874690">
    <ele>42.2</ele>
    <time>2025-07-05T13:56:00Z</time>
   </trkpt>
   <trkpt lat="53.3251740" lon="-7.9876080">
    <ele>41.9</ele>
    <time>2025-07-05T13:56:05Z</time>
   </trkpt>
   <trkpt lat="53.3251830" lon="-7.9877120">
    <ele>41.6</ele>
    <time>2025-07-05T13:56:10Z</time>
   </trkpt>
   <trkpt lat="53.3251900" lon="-7.9878300">
    <ele>41.3</ele>
    <time>2025-07-05T13:56:15Z</time>
   </trkpt>
   <trkpt lat="53.3252280" lon="-7.9877630">
    <ele>41.0</ele>
    <time>2025-07-05T13:56:33Z</time>
   </trkpt>
   <trkpt lat="53.3252950" lon="-7.9876220">
    <ele>41.3</ele>
    <time>2025-07-05T13:56:38Z</time>
   </trkpt>
   <trkpt lat="53.3253340" lon="-7.9875230">
    <ele>41.7</ele>
    <time>2025-07-05T13:56:44Z</time>
   </trkpt>
   <trkpt lat="53.3253880" lon="-7.9874400">
    <ele>42.0</ele>
    <time>2025-07-05T13:56:49Z</time>
   </trkpt>
   <trkpt lat="53.3254490" lon="-7.9873600">
    <ele>42.3</ele>
    <time>2025-07-05T13:56:55Z</time>
   </trkpt>
   <trkpt lat="53.3255210" lon="-7.9872810">
    <ele>42.5</ele>
    <time>2025-07-05T13:57:00Z</time>
   </trkpt>
   <trkpt lat="53.3255730" lon="-7.9871760">
    <ele>42.7</ele>
    <time>2025-07-05T13:57:06Z</time>
   </trkpt>
   <trkpt lat="53.3256220" lon="-7.9870950">
    <ele>42.8</ele>
    <time>2025-07-05T13:57:11Z</time>
   </trkpt>
   <trkpt lat="53.3256680" lon="-7.9870920">
    <ele>42.9</ele>
    <time>2025-07-05T13:57:17Z</time>
   </trkpt>
   <trkpt lat="53.3257110" lon="-7.9871260">
    <ele>42.8</ele>
    <time>2025-07-05T13:57:29Z</time>
   </trkpt>
   <trkpt lat="53.3257470" lon="-7.9870790">
    <ele>42.8</ele>
    <time>2025-07-05T13:57:37Z</time>
   </trkpt>
   <trkpt lat="53.3257780" lon="-7.9870120">
    <ele>42.8</ele>
    <time>2025-07-05T13:57:43Z</time>
   </trkpt>
   <trkpt lat="53.3258220" lon="-7.9869850">
    <ele>42.8</ele>
    <time>2025-07-05T13:57:52Z</time>
   </trkpt>
   <trkpt lat="53.3258620" lon="-7.9868900">
    <ele>42.7</ele>
    <time>2025-07-05T13:57:58Z</time>
   </trkpt>
   <trkpt lat="53.3258840" lon="-7.9868110">
    <ele>42.7</ele>
    <time>2025-07-05T13:58:04Z</time>
   </trkpt>
   <trkpt lat="53.3259340" lon="-7.9868510">
    <ele>42.5</ele>
    <time>2025-07-05T13:58:09Z</time>
   </trkpt>
   <trkpt lat="53.3259470" lon="-7.9867790">
    <ele>42.4</ele>
    <time>2025-07-05T13:58:15Z</time>
   </trkpt>
   <trkpt lat="53.3259220" lon="-7.9867140">
    <ele>42.5</ele>
    <time>2025-07-05T13:58:49Z</time>
   </trkpt>
   <trkpt lat="53.3259430" lon="-7.9867810">
    <ele>42.5</ele>
    <time>2025-07-05T14:01:05Z</time>
   </trkpt>
   <trkpt lat="53.3259800" lon="-7.9868910">
    <ele>42.3</ele>
    <time>2025-07-05T14:01:10Z</time>
   </trkpt>
   <trkpt lat="53.3259570" lon="-7.9869750">
    <ele>42.2</ele>
    <time>2025-07-05T14:01:15Z</time>
   </trkpt>
   <trkpt lat="53.3259360" lon="-7.9870500">
    <ele>42.1</ele>
    <time>2025-07-05T14:01:21Z</time>
   </trkpt>
   <trkpt lat="53.3259090" lon="-7.9871140">
    <ele>42.2</ele>
    <time>2025-07-05T14:01:26Z</time>
   </trkpt>
   <trkpt lat="53.3258640" lon="-7.9871300">
    <ele>42.2</ele>
    <time>2025-07-05T14:01:32Z</time>
   </trkpt>
   <trkpt lat="53.3257920" lon="-7.9870930">
    <ele>42.5</ele>
    <time>2025-07-05T14:01:38Z</time>
   </trkpt>
   <trkpt lat="53.3257370" lon="-7.9870680">
    <ele>42.7</ele>
    <time>2025-07-05T14:01:43Z</time>
   </trkpt>
   <trkpt lat="53.3256760" lon="-7.9870320">
    <ele>42.8</ele>
    <time>2025-07-05T14:01:48Z</time>
   </trkpt>
   <trkpt lat="53.3256020" lon="-7.9869790">
    <ele>42.9</ele>
    <time>2025-07-05T14:01:54Z</time>
   </trkpt>
   <trkpt lat="53.3255430" lon="-7.9870480">
    <ele>43.0</ele>
    <time>2025-07-05T14:01:59Z</time>
   </trkpt>
  </trkseg>
 </trk>
</gpx>
